sensor_id;sensor_type;location;lat;lon;timestamp;pressure;altitude;pressure_sealevel;temperature;humidity
80116;BME280;69423;47.608;19.366;2023-04-22T00:00:07;98755.13;;;9.84;69.58
80116;BME280;69423;47.608;19.366;2023-04-22T00:00:38;98754.31;;;9.83;70.30
80116;BME280;69423;47.608;19.366;2023-04-22T00:01:10;98760.63;;;9.82;69.83
80116;BME280;69423;47.608;19.366;2023-04-22T00:01:42;98770.00;;;9.78;69.08
80116;BME280;69423;47.608;19.366;2023-04-22T00:02:13;98750.38;;;9.79;69.54
80116;BME280;69423;47.608;19.366;2023-04-22T00:02:46;98761.03;;;9.79;69.81
80116;BME280;69423;47.608;19.366;2023-04-22T00:03:17;98756.03;;;9.76;69.90
80116;BME280;69423;47.608;19.366;2023-04-22T00:03:48;98752.56;;;9.76;70.15
80116;BME280;69423;47.608;19.366;2023-04-22T00:04:19;98762.56;;;9.73;69.42
80116;BME280;69423;47.608;19.366;2023-04-22T00:04:50;98754.41;;;9.75;69.54
80116;BME280;69423;47.608;19.366;2023-04-22T00:05:21;98764.59;;;9.71;69.78
80116;BME280;69423;47.608;19.366;2023-04-22T00:05:52;98752.09;;;9.72;70.48
80116;BME280;69423;47.608;19.366;2023-04-22T00:06:24;98764.41;;;9.73;70.25
80116;BME280;69423;47.608;19.366;2023-04-22T00:06:55;98749.44;;;9.72;69.78
80116;BME280;69423;47.608;19.366;2023-04-22T00:07:26;98753.75;;;9.73;70.02
80116;BME280;69423;47.608;19.366;2023-04-22T00:07:57;98757.59;;;9.70;70.66
80116;BME280;69423;47.608;19.366;2023-04-22T00:08:27;98765.78;;;9.69;70.26
80116;BME280;69423;47.608;19.366;2023-04-22T00:08:58;98756.78;;;9.70;70.57
80116;BME280;69423;47.608;19.366;2023-04-22T00:09:29;98755.78;;;9.71;70.33
80116;BME280;69423;47.608;19.366;2023-04-22T00:10:00;98758.78;;;9.68;70.63
80116;BME280;69423;47.608;19.366;2023-04-22T00:10:31;98761.84;;;9.65;70.60
80116;BME280;69423;47.608;19.366;2023-04-22T00:11:02;98762.00;;;9.63;70.01
80116;BME280;69423;47.608;19.366;2023-04-22T00:11:33;98760.16;;;9.64;70.35
80116;BME280;69423;47.608;19.366;2023-04-22T00:12:04;98755.66;;;9.64;70.40
80116;BME280;69423;47.608;19.366;2023-04-22T00:12:35;98757.66;;;9.62;70.17
80116;BME280;69423;47.608;19.366;2023-04-22T00:13:05;98760.16;;;9.64;70.30
80116;BME280;69423;47.608;19.366;2023-04-22T00:13:36;98759.50;;;9.62;69.95
80116;BME280;69423;47.608;19.366;2023-04-22T00:14:07;98764.38;;;9.58;70.05
80116;BME280;69423;47.608;19.366;2023-04-22T00:14:38;98760.53;;;9.61;70.58
80116;BME280;69423;47.608;19.366;2023-04-22T00:15:09;98761.53;;;9.60;69.94
80116;BME280;69423;47.608;19.366;2023-04-22T00:15:40;98767.22;;;9.57;70.09
80116;BME280;69423;47.608;19.366;2023-04-22T00:16:11;98761.34;;;9.46;70.37
80116;BME280;69423;47.608;19.366;2023-04-22T00:16:42;98764.81;;;9.47;69.30
80116;BME280;69423;47.608;19.366;2023-04-22T00:17:13;98763.63;;;9.49;69.39
80116;BME280;69423;47.608;19.366;2023-04-22T00:17:44;98760.13;;;9.49;69.73
80116;BME280;69423;47.608;19.366;2023-04-22T00:18:15;98758.31;;;9.49;69.64
80116;BME280;69423;47.608;19.366;2023-04-22T00:18:47;98763.28;;;9.52;69.35
80116;BME280;69423;47.608;19.366;2023-04-22T00:19:18;98755.00;;;9.47;69.45
80116;BME280;69423;47.608;19.366;2023-04-22T00:19:49;98755.38;;;9.44;69.37
80116;BME280;69423;47.608;19.366;2023-04-22T00:20:20;98763.34;;;9.44;69.42
80116;BME280;69423;47.608;19.366;2023-04-22T00:20:51;98757.22;;;9.44;68.26
80116;BME280;69423;47.608;19.366;2023-04-22T00:21:22;98757.56;;;9.41;69.09
80116;BME280;69423;47.608;19.366;2023-04-22T00:21:53;98762.88;;;9.41;69.60
80116;BME280;69423;47.608;19.366;2023-04-22T00:22:23;98759.03;;;9.43;69.58
80116;BME280;69423;47.608;19.366;2023-04-22T00:22:54;98749.75;;;9.39;69.86
80116;BME280;69423;47.608;19.366;2023-04-22T00:23:25;98753.25;;;9.40;70.13
80116;BME280;69423;47.608;19.366;2023-04-22T00:23:56;98762.06;;;9.40;69.98
80116;BME280;69423;47.608;19.366;2023-04-22T00:24:28;98751.41;;;9.40;69.23
80116;BME280;69423;47.608;19.366;2023-04-22T00:24:59;98755.06;;;9.39;69.37
80116;BME280;69423;47.608;19.366;2023-04-22T00:25:30;98755.44;;;9.36;69.47
80116;BME280;69423;47.608;19.366;2023-04-22T00:26:01;98757.06;;;9.37;69.01
80116;BME280;69423;47.608;19.366;2023-04-22T00:26:32;98754.41;;;9.37;70.01
80116;BME280;69423;47.608;19.366;2023-04-22T00:27:03;98757.06;;;9.37;69.44
80116;BME280;69423;47.608;19.366;2023-04-22T00:27:34;98753.50;;;9.30;69.39
80116;BME280;69423;47.608;19.366;2023-04-22T00:28:05;98759.16;;;9.27;69.95
80116;BME280;69423;47.608;19.366;2023-04-22T00:28:36;98755.41;;;9.21;70.26
80116;BME280;69423;47.608;19.366;2023-04-22T00:29:07;98746.78;;;9.19;69.60
80116;BME280;69423;47.608;19.366;2023-04-22T00:29:38;98755.56;;;9.20;70.08
80116;BME280;69423;47.608;19.366;2023-04-22T00:30:09;98745.75;;;9.20;70.31
80116;BME280;69423;47.608;19.366;2023-04-22T00:30:40;98749.06;;;9.22;70.32
80116;BME280;69423;47.608;19.366;2023-04-22T00:31:11;98747.06;;;9.24;70.75
80116;BME280;69423;47.608;19.366;2023-04-22T00:31:42;98754.84;;;9.26;70.32
80116;BME280;69423;47.608;19.366;2023-04-22T00:32:12;98748.91;;;9.24;70.13
80116;BME280;69423;47.608;19.366;2023-04-22T00:32:43;98746.56;;;9.21;69.94
80116;BME280;69423;47.608;19.366;2023-04-22T00:33:14;98743.09;;;9.20;69.53
80116;BME280;69423;47.608;19.366;2023-04-22T00:33:45;98754.28;;;9.16;69.78
80116;BME280;69423;47.608;19.366;2023-04-22T00:34:16;98748.31;;;9.14;69.58
80116;BME280;69423;47.608;19.366;2023-04-22T00:34:50;98746.66;;;9.13;69.36
80116;BME280;69423;47.608;19.366;2023-04-22T00:35:20;98751.13;;;9.12;68.99
80116;BME280;69423;47.608;19.366;2023-04-22T00:35:51;98748.69;;;9.10;68.76
80116;BME280;69423;47.608;19.366;2023-04-22T00:36:24;98750.31;;;9.11;69.57
80116;BME280;69423;47.608;19.366;2023-04-22T00:36:55;98749.03;;;9.07;69.62
80116;BME280;69423;47.608;19.366;2023-04-22T00:37:27;98747.38;;;9.06;69.27
80116;BME280;69423;47.608;19.366;2023-04-22T00:37:58;98746.72;;;9.04;69.67
80116;BME280;69423;47.608;19.366;2023-04-22T00:38:29;98743.06;;;9.05;69.16
80116;BME280;69423;47.608;19.366;2023-04-22T00:39:00;98754.06;;;9.02;68.94
80116;BME280;69423;47.608;19.366;2023-04-22T00:39:31;98752.41;;;9.01;68.76
80116;BME280;69423;47.608;19.366;2023-04-22T00:40:02;98748.75;;;9.02;68.87
80116;BME280;69423;47.608;19.366;2023-04-22T00:40:33;98747.06;;;9.01;69.16
80116;BME280;69423;47.608;19.366;2023-04-22T00:41:04;98748.91;;;9.01;69.18
80116;BME280;69423;47.608;19.366;2023-04-22T00:41:36;98750.75;;;9.00;69.71
80116;BME280;69423;47.608;19.366;2023-04-22T00:42:06;98744.59;;;9.00;69.96
80116;BME280;69423;47.608;19.366;2023-04-22T00:42:38;98741.75;;;9.01;70.38
80116;BME280;69423;47.608;19.366;2023-04-22T00:43:10;98738.44;;;8.99;70.81
80116;BME280;69423;47.608;19.366;2023-04-22T00:43:41;98736.44;;;9.01;70.59
80116;BME280;69423;47.608;19.366;2023-04-22T00:44:12;98747.06;;;9.01;70.19
80116;BME280;69423;47.608;19.366;2023-04-22T00:44:45;98742.94;;;8.99;69.88
80116;BME280;69423;47.608;19.366;2023-04-22T00:45:19;98740.81;;;8.94;70.02
80116;BME280;69423;47.608;19.366;2023-04-22T00:45:51;98743.66;;;8.93;69.65
80116;BME280;69423;47.608;19.366;2023-04-22T00:46:22;98748.97;;;8.93;69.62
80116;BME280;69423;47.608;19.366;2023-04-22T00:46:54;98747.31;;;8.91;69.97
80116;BME280;69423;47.608;19.366;2023-04-22T00:47:25;98741.16;;;8.91;70.46
80116;BME280;69423;47.608;19.366;2023-04-22T00:47:57;98741.34;;;8.89;70.42
80116;BME280;69423;47.608;19.366;2023-04-22T00:48:29;98739.03;;;8.86;70.05
80116;BME280;69423;47.608;19.366;2023-04-22T00:49:01;98736.75;;;8.83;69.94
80116;BME280;69423;47.608;19.366;2023-04-22T00:49:34;98741.22;;;8.83;70.39
80116;BME280;69423;47.608;19.366;2023-04-22T00:50:05;98743.06;;;8.82;70.46
80116;BME280;69423;47.608;19.366;2023-04-22T00:50:36;98736.28;;;8.80;70.37
80116;BME280;69423;47.608;19.366;2023-04-22T00:51:07;98740.56;;;8.81;70.68
80116;BME280;69423;47.608;19.366;2023-04-22T00:51:38;98746.25;;;8.78;70.60
80116;BME280;69423;47.608;19.366;2023-04-22T00:52:09;98741.28;;;8.75;70.71
80116;BME280;69423;47.608;19.366;2023-04-22T00:52:40;98742.81;;;8.69;70.54
80116;BME280;69423;47.608;19.366;2023-04-22T00:53:11;98739.97;;;8.70;69.24
80116;BME280;69423;47.608;19.366;2023-04-22T00:53:42;98742.63;;;8.70;69.42
80116;BME280;69423;47.608;19.366;2023-04-22T00:54:12;98734.66;;;8.70;69.38
80116;BME280;69423;47.608;19.366;2023-04-22T00:54:44;98739.16;;;8.70;69.35
80116;BME280;69423;47.608;19.366;2023-04-22T00:55:16;98744.63;;;8.68;69.39
80116;BME280;69423;47.608;19.366;2023-04-22T00:55:47;98735.03;;;8.67;70.29
80116;BME280;69423;47.608;19.366;2023-04-22T00:56:19;98746.66;;;8.66;70.42
80116;BME280;69423;47.608;19.366;2023-04-22T00:56:51;98745.00;;;8.65;70.95
80116;BME280;69423;47.608;19.366;2023-04-22T00:57:23;98738.88;;;8.65;70.71
80116;BME280;69423;47.608;19.366;2023-04-22T00:57:57;98741.31;;;8.66;71.62
80116;BME280;69423;47.608;19.366;2023-04-22T00:58:30;98743.34;;;8.64;71.34
80116;BME280;69423;47.608;19.366;2023-04-22T00:59:01;98744.19;;;8.65;70.63
80116;BME280;69423;47.608;19.366;2023-04-22T00:59:32;98742.50;;;8.64;70.29
80116;BME280;69423;47.608;19.366;2023-04-22T01:00:05;98745.53;;;8.61;70.33
80116;BME280;69423;47.608;19.366;2023-04-22T01:00:36;98742.69;;;8.62;70.80
80116;BME280;69423;47.608;19.366;2023-04-22T01:01:07;98737.38;;;8.62;71.10
80116;BME280;69423;47.608;19.366;2023-04-22T01:01:38;98738.56;;;8.60;71.03
80116;BME280;69423;47.608;19.366;2023-04-22T01:02:09;98740.38;;;8.59;70.71
80116;BME280;69423;47.608;19.366;2023-04-22T01:02:41;98740.72;;;8.56;70.97
80116;BME280;69423;47.608;19.366;2023-04-22T01:03:12;98745.38;;;8.54;70.28
80116;BME280;69423;47.608;19.366;2023-04-22T01:03:45;98751.56;;;8.55;70.91
80116;BME280;69423;47.608;19.366;2023-04-22T01:04:17;98745.59;;;8.53;70.53
80116;BME280;69423;47.608;19.366;2023-04-22T01:04:49;98748.56;;;8.49;70.62
80116;BME280;69423;47.608;19.366;2023-04-22T01:05:21;98749.09;;;8.45;71.33
80116;BME280;69423;47.608;19.366;2023-04-22T01:05:51;98747.63;;;8.42;70.80
80116;BME280;69423;47.608;19.366;2023-04-22T01:06:23;98748.44;;;8.43;71.23
80116;BME280;69423;47.608;19.366;2023-04-22T01:06:54;98752.44;;;8.39;70.70
80116;BME280;69423;47.608;19.366;2023-04-22T01:07:25;98752.44;;;8.39;71.02
80116;BME280;69423;47.608;19.366;2023-04-22T01:07:56;98749.94;;;8.37;71.13
80116;BME280;69423;47.608;19.366;2023-04-22T01:08:27;98748.28;;;8.36;70.98
80116;BME280;69423;47.608;19.366;2023-04-22T01:08:59;98752.13;;;8.34;70.72
80116;BME280;69423;47.608;19.366;2023-04-22T01:09:30;98749.47;;;8.34;70.40
80116;BME280;69423;47.608;19.366;2023-04-22T01:10:03;98755.13;;;8.30;70.76
80116;BME280;69423;47.608;19.366;2023-04-22T01:10:34;98752.81;;;8.27;69.90
80116;BME280;69423;47.608;19.366;2023-04-22T01:11:05;98748.16;;;8.29;70.63
80116;BME280;69423;47.608;19.366;2023-04-22T01:11:36;98745.84;;;8.26;71.03
80116;BME280;69423;47.608;19.366;2023-04-22T01:12:07;98751.16;;;8.26;71.18
80116;BME280;69423;47.608;19.366;2023-04-22T01:12:38;98755.47;;;8.27;70.10
80116;BME280;69423;47.608;19.366;2023-04-22T01:13:09;98756.13;;;8.29;70.25
80116;BME280;69423;47.608;19.366;2023-04-22T01:13:40;98761.44;;;8.29;70.60
80116;BME280;69423;47.608;19.366;2023-04-22T01:14:11;98758.78;;;8.29;71.08
80116;BME280;69423;47.608;19.366;2023-04-22T01:14:42;98759.78;;;8.28;71.08
80116;BME280;69423;47.608;19.366;2023-04-22T01:15:13;98765.78;;;8.22;70.74
80116;BME280;69423;47.608;19.366;2023-04-22T01:15:44;98763.47;;;8.19;70.91
80116;BME280;69423;47.608;19.366;2023-04-22T01:16:15;98759.66;;;8.22;71.27
80116;BME280;69423;47.608;19.366;2023-04-22T01:16:46;98754.16;;;8.23;70.86
80116;BME280;69423;47.608;19.366;2023-04-22T01:17:17;98760.31;;;8.24;69.64
80116;BME280;69423;47.608;19.366;2023-04-22T01:17:49;98767.44;;;8.23;69.55
80116;BME280;69423;47.608;19.366;2023-04-22T01:18:23;98759.13;;;8.26;69.24
80116;BME280;69423;47.608;19.366;2023-04-22T01:18:53;98761.44;;;8.29;69.79
80116;BME280;69423;47.608;19.366;2023-04-22T01:19:25;98759.59;;;8.30;70.36
80116;BME280;69423;47.608;19.366;2023-04-22T01:19:56;98763.25;;;8.29;69.53
80116;BME280;69423;47.608;19.366;2023-04-22T01:20:28;98765.91;;;8.29;69.02
80116;BME280;69423;47.608;19.366;2023-04-22T01:21:00;98767.41;;;8.31;69.29
80116;BME280;69423;47.608;19.366;2023-04-22T01:21:33;98762.09;;;8.31;69.50
80116;BME280;69423;47.608;19.366;2023-04-22T01:22:06;98763.75;;;8.32;69.60
80116;BME280;69423;47.608;19.366;2023-04-22T01:22:44;98758.25;;;8.34;69.24
80116;BME280;69423;47.608;19.366;2023-04-22T01:23:19;98768.94;;;8.26;69.22
80116;BME280;69423;47.608;19.366;2023-04-22T01:23:51;98760.81;;;8.19;69.21
80116;BME280;69423;47.608;19.366;2023-04-22T01:24:22;98770.78;;;8.17;69.93
80116;BME280;69423;47.608;19.366;2023-04-22T01:24:53;98763.13;;;8.22;69.37
80116;BME280;69423;47.608;19.366;2023-04-22T01:25:25;98766.47;;;8.16;69.93
80116;BME280;69423;47.608;19.366;2023-04-22T01:25:56;98770.66;;;8.10;69.79
80116;BME280;69423;47.608;19.366;2023-04-22T01:26:27;98766.16;;;8.11;69.93
80116;BME280;69423;47.608;19.366;2023-04-22T01:26:58;98764.50;;;8.10;69.46
80116;BME280;69423;47.608;19.366;2023-04-22T01:27:29;98764.16;;;8.13;70.10
80116;BME280;69423;47.608;19.366;2023-04-22T01:28:01;98759.19;;;8.10;70.01
80116;BME280;69423;47.608;19.366;2023-04-22T01:28:32;98764.03;;;8.06;69.88
80116;BME280;69423;47.608;19.366;2023-04-22T01:29:04;98764.84;;;8.07;69.70
80116;BME280;69423;47.608;19.366;2023-04-22T01:29:36;98772.00;;;8.06;69.97
80116;BME280;69423;47.608;19.366;2023-04-22T01:30:08;98766.69;;;8.06;69.63
80116;BME280;69423;47.608;19.366;2023-04-22T01:30:41;98760.38;;;8.07;68.50
80116;BME280;69423;47.608;19.366;2023-04-22T01:31:12;98764.69;;;8.08;68.28
80116;BME280;69423;47.608;19.366;2023-04-22T01:31:43;98769.81;;;8.10;68.42
80116;BME280;69423;47.608;19.366;2023-04-22T01:32:14;98761.69;;;8.11;68.47
80116;BME280;69423;47.608;19.366;2023-04-22T01:32:45;98770.16;;;8.07;68.22
80116;BME280;69423;47.608;19.366;2023-04-22T01:33:16;98767.50;;;8.07;68.50
80116;BME280;69423;47.608;19.366;2023-04-22T01:33:47;98767.50;;;8.07;68.12
80116;BME280;69423;47.608;19.366;2023-04-22T01:34:19;98768.03;;;8.02;68.40
80116;BME280;69423;47.608;19.366;2023-04-22T01:34:50;98764.72;;;8.00;68.50
80116;BME280;69423;47.608;19.366;2023-04-22T01:35:21;98762.22;;;7.99;68.67
80116;BME280;69423;47.608;19.366;2023-04-22T01:35:52;98768.19;;;8.01;68.79
80116;BME280;69423;47.608;19.366;2023-04-22T01:36:23;98768.84;;;8.03;68.78
80116;BME280;69423;47.608;19.366;2023-04-22T01:36:53;98774.16;;;8.03;67.95
80116;BME280;69423;47.608;19.366;2023-04-22T01:37:24;98771.16;;;8.06;68.04
80116;BME280;69423;47.608;19.366;2023-04-22T01:37:55;98777.13;;;8.08;67.95
80116;BME280;69423;47.608;19.366;2023-04-22T01:38:27;98771.63;;;8.09;67.67
80116;BME280;69423;47.608;19.366;2023-04-22T01:38:59;98775.47;;;8.07;67.83
80116;BME280;69423;47.608;19.366;2023-04-22T01:39:30;98769.63;;;8.11;67.90
80116;BME280;69423;47.608;19.366;2023-04-22T01:40:01;98767.81;;;8.12;66.94
80116;BME280;69423;47.608;19.366;2023-04-22T01:40:33;98771.31;;;8.13;67.12
80116;BME280;69423;47.608;19.366;2023-04-22T01:41:04;98761.50;;;8.13;67.00
80116;BME280;69423;47.608;19.366;2023-04-22T01:41:35;98774.63;;;8.15;67.23
80116;BME280;69423;47.608;19.366;2023-04-22T01:42:05;98756.84;;;8.15;66.89
80116;BME280;69423;47.608;19.366;2023-04-22T01:42:37;98767.47;;;8.15;67.33
80116;BME280;69423;47.608;19.366;2023-04-22T01:43:08;98770.78;;;8.17;67.31
80116;BME280;69423;47.608;19.366;2023-04-22T01:43:38;98767.81;;;8.12;67.23
80116;BME280;69423;47.608;19.366;2023-04-22T01:44:10;98767.00;;;8.11;67.16
80116;BME280;69423;47.608;19.366;2023-04-22T01:44:40;98765.81;;;8.14;67.21
80116;BME280;69423;47.608;19.366;2023-04-22T01:45:11;98758.69;;;8.15;67.08
80116;BME280;69423;47.608;19.366;2023-04-22T01:45:42;98770.47;;;8.12;66.77
80116;BME280;69423;47.608;19.366;2023-04-22T01:46:16;98772.00;;;8.06;66.79
80116;BME280;69423;47.608;19.366;2023-04-22T01:46:47;98759.19;;;8.10;67.17
80116;BME280;69423;47.608;19.366;2023-04-22T01:47:18;98762.34;;;8.14;67.32
80116;BME280;69423;47.608;19.366;2023-04-22T01:47:49;98764.16;;;8.13;66.87
80116;BME280;69423;47.608;19.366;2023-04-22T01:48:20;98769.81;;;8.10;67.15
80116;BME280;69423;47.608;19.366;2023-04-22T01:48:51;98759.19;;;8.10;67.34
80116;BME280;69423;47.608;19.366;2023-04-22T01:49:21;98765.50;;;8.09;67.27
80116;BME280;69423;47.608;19.366;2023-04-22T01:49:52;98769.47;;;8.13;67.31
80116;BME280;69423;47.608;19.366;2023-04-22T01:50:23;98769.47;;;8.13;67.31
80116;BME280;69423;47.608;19.366;2023-04-22T01:50:54;98769.13;;;8.16;68.43
80116;BME280;69423;47.608;19.366;2023-04-22T01:51:25;98758.50;;;8.16;67.78
80116;BME280;69423;47.608;19.366;2023-04-22T01:51:57;98763.81;;;8.16;68.16
80116;BME280;69423;47.608;19.366;2023-04-22T01:52:29;98771.13;;;8.14;68.97
80116;BME280;69423;47.608;19.366;2023-04-22T01:53:00;98764.81;;;8.15;68.83
80116;BME280;69423;47.608;19.366;2023-04-22T01:53:31;98768.13;;;8.17;69.07
80116;BME280;69423;47.608;19.366;2023-04-22T01:54:02;98765.47;;;8.17;68.44
80116;BME280;69423;47.608;19.366;2023-04-22T01:54:34;98773.59;;;8.16;68.82
80116;BME280;69423;47.608;19.366;2023-04-22T01:55:05;98773.78;;;8.14;68.01
80116;BME280;69423;47.608;19.366;2023-04-22T01:55:37;98773.78;;;8.14;68.20
80116;BME280;69423;47.608;19.366;2023-04-22T01:56:08;98771.13;;;8.14;67.04
80116;BME280;69423;47.608;19.366;2023-04-22T01:56:39;98764.16;;;8.13;67.17
80116;BME280;69423;47.608;19.366;2023-04-22T01:57:12;98764.84;;;8.07;67.78
80116;BME280;69423;47.608;19.366;2023-04-22T01:57:43;98761.69;;;8.03;67.49
80116;BME280;69423;47.608;19.366;2023-04-22T01:58:14;98768.03;;;8.02;67.62
80116;BME280;69423;47.608;19.366;2023-04-22T01:58:45;98763.69;;;8.01;67.57
80116;BME280;69423;47.608;19.366;2023-04-22T01:59:16;98765.19;;;8.04;68.44
80116;BME280;69423;47.608;19.366;2023-04-22T01:59:47;98768.69;;;8.04;68.01
80116;BME280;69423;47.608;19.366;2023-04-22T02:00:18;98765.19;;;8.04;68.65
80116;BME280;69423;47.608;19.366;2023-04-22T02:00:48;98765.66;;;8.07;68.59
80116;BME280;69423;47.608;19.366;2023-04-22T02:01:19;98758.88;;;8.05;68.07
80116;BME280;69423;47.608;19.366;2023-04-22T02:01:50;98758.88;;;8.05;67.93
80116;BME280;69423;47.608;19.366;2023-04-22T02:02:21;98759.06;;;8.03;68.16
80116;BME280;69423;47.608;19.366;2023-04-22T02:02:52;98766.34;;;8.01;68.51
80116;BME280;69423;47.608;19.366;2023-04-22T02:03:23;98763.69;;;8.01;68.15
80116;BME280;69423;47.608;19.366;2023-04-22T02:03:53;98762.06;;;8.00;68.41
80116;BME280;69423;47.608;19.366;2023-04-22T02:04:24;98762.38;;;7.97;68.05
80116;BME280;69423;47.608;19.366;2023-04-22T02:04:56;98763.72;;;7.93;68.68
80116;BME280;69423;47.608;19.366;2023-04-22T02:05:27;98766.38;;;7.93;68.19
80116;BME280;69423;47.608;19.366;2023-04-22T02:05:57;98764.09;;;7.90;68.83
80116;BME280;69423;47.608;19.366;2023-04-22T02:06:28;98764.91;;;7.90;68.25
80116;BME280;69423;47.608;19.366;2023-04-22T02:06:59;98769.38;;;7.90;68.08
80116;BME280;69423;47.608;19.366;2023-04-22T02:07:30;98759.44;;;7.84;67.97
80116;BME280;69423;47.608;19.366;2023-04-22T02:08:01;98760.94;;;7.78;68.18
80116;BME280;69423;47.608;19.366;2023-04-22T02:08:32;98758.97;;;7.80;68.62
80116;BME280;69423;47.608;19.366;2023-04-22T02:09:03;98764.25;;;7.80;68.25
80116;BME280;69423;47.608;19.366;2023-04-22T02:09:34;98759.97;;;7.79;68.10
80116;BME280;69423;47.608;19.366;2023-04-22T02:10:05;98759.31;;;7.77;68.87
80116;BME280;69423;47.608;19.366;2023-04-22T02:10:36;98765.75;;;7.75;68.48
80116;BME280;69423;47.608;19.366;2023-04-22T02:11:07;98760.44;;;7.75;68.16
80116;BME280;69423;47.608;19.366;2023-04-22T02:11:38;98760.81;;;7.72;68.18
80116;BME280;69423;47.608;19.366;2023-04-22T02:12:09;98762.66;;;7.63;67.95
80116;BME280;69423;47.608;19.366;2023-04-22T02:12:39;98760.47;;;7.58;68.55
80116;BME280;69423;47.608;19.366;2023-04-22T02:13:10;98762.97;;;7.60;68.86
80116;BME280;69423;47.608;19.366;2023-04-22T02:13:41;98758.69;;;7.59;68.36
80116;BME280;69423;47.608;19.366;2023-04-22T02:14:12;98761.13;;;7.60;69.45
80116;BME280;69423;47.608;19.366;2023-04-22T02:14:43;98754.84;;;7.61;69.72
80116;BME280;69423;47.608;19.366;2023-04-22T02:15:14;98759.34;;;7.61;69.13
80116;BME280;69423;47.608;19.366;2023-04-22T02:15:45;98770.94;;;7.60;69.02
80116;BME280;69423;47.608;19.366;2023-04-22T02:16:15;98763.50;;;7.47;69.49
80116;BME280;69423;47.608;19.366;2023-04-22T02:16:46;98759.88;;;7.40;69.41
80116;BME280;69423;47.608;19.366;2023-04-22T02:17:17;98754.06;;;7.44;69.70
80116;BME280;69423;47.608;19.366;2023-04-22T02:17:48;98760.03;;;7.46;69.82
80116;BME280;69423;47.608;19.366;2023-04-22T02:18:20;98761.19;;;7.44;70.18
80116;BME280;69423;47.608;19.366;2023-04-22T02:18:51;98756.88;;;7.43;70.20
80116;BME280;69423;47.608;19.366;2023-04-22T02:19:22;98766.81;;;7.49;70.41
80116;BME280;69423;47.608;19.366;2023-04-22T02:19:53;98766.31;;;7.45;70.92
80116;BME280;69423;47.608;19.366;2023-04-22T02:20:24;98763.50;;;7.47;70.84
80116;BME280;69423;47.608;19.366;2023-04-22T02:20:55;98758.19;;;7.47;71.59
80116;BME280;69423;47.608;19.366;2023-04-22T02:21:30;98762.69;;;7.46;71.12
80116;BME280;69423;47.608;19.366;2023-04-22T02:22:02;98754.72;;;7.46;70.84
80116;BME280;69423;47.608;19.366;2023-04-22T02:22:33;98762.69;;;7.46;71.15
80116;BME280;69423;47.608;19.366;2023-04-22T02:23:04;98754.22;;;7.43;70.94
80116;BME280;69423;47.608;19.366;2023-04-22T02:23:37;98754.72;;;7.38;70.98
80116;BME280;69423;47.608;19.366;2023-04-22T02:24:08;98765.00;;;7.41;70.93
80116;BME280;69423;47.608;19.366;2023-04-22T02:24:39;98758.19;;;7.39;71.04
80116;BME280;69423;47.608;19.366;2023-04-22T02:25:10;98761.00;;;7.37;71.81
80116;BME280;69423;47.608;19.366;2023-04-22T02:25:47;98757.69;;;7.35;71.05
80116;BME280;69423;47.608;19.366;2023-04-22T02:26:18;98763.19;;;7.34;70.94
80116;BME280;69423;47.608;19.366;2023-04-22T02:26:49;98759.69;;;7.33;71.52
80116;BME280;69423;47.608;19.366;2023-04-22T02:27:20;98754.88;;;7.28;71.76
80116;BME280;69423;47.608;19.366;2023-04-22T02:27:51;98763.00;;;7.27;71.02
80116;BME280;69423;47.608;19.366;2023-04-22T02:28:22;98764.00;;;7.26;71.32
80116;BME280;69423;47.608;19.366;2023-04-22T02:28:53;98761.38;;;7.26;71.53
80116;BME280;69423;47.608;19.366;2023-04-22T02:29:24;98759.38;;;7.28;72.36
80116;BME280;69423;47.608;19.366;2023-04-22T02:29:55;98759.38;;;7.28;72.04
80116;BME280;69423;47.608;19.366;2023-04-22T02:30:26;98765.34;;;7.30;72.08
80116;BME280;69423;47.608;19.366;2023-04-22T02:30:57;98765.34;;;7.30;72.12
80116;BME280;69423;47.608;19.366;2023-04-22T02:31:27;98756.72;;;7.28;71.84
80116;BME280;69423;47.608;19.366;2023-04-22T02:31:59;98754.38;;;7.25;71.57
80116;BME280;69423;47.608;19.366;2023-04-22T02:32:29;98768.66;;;7.24;72.25
80116;BME280;69423;47.608;19.366;2023-04-22T02:33:01;98756.72;;;7.20;72.73
80116;BME280;69423;47.608;19.366;2023-04-22T02:33:32;98760.03;;;7.22;72.27
80116;BME280;69423;47.608;19.366;2023-04-22T02:34:02;98758.06;;;7.24;72.57
80116;BME280;69423;47.608;19.366;2023-04-22T02:34:33;98765.84;;;7.25;71.94
80116;BME280;69423;47.608;19.366;2023-04-22T02:35:05;98760.69;;;7.24;72.33
80116;BME280;69423;47.608;19.366;2023-04-22T02:35:36;98761.38;;;7.26;72.67
80116;BME280;69423;47.608;19.366;2023-04-22T02:36:07;98761.69;;;7.23;71.81
80116;BME280;69423;47.608;19.366;2023-04-22T02:36:37;98754.56;;;7.23;72.46
80116;BME280;69423;47.608;19.366;2023-04-22T02:37:08;98756.06;;;7.26;72.64
80116;BME280;69423;47.608;19.366;2023-04-22T02:37:39;98756.88;;;7.26;72.79
80116;BME280;69423;47.608;19.366;2023-04-22T02:38:10;98756.06;;;7.26;72.33
80116;BME280;69423;47.608;19.366;2023-04-22T02:38:41;98762.69;;;7.22;72.45
80116;BME280;69423;47.608;19.366;2023-04-22T02:39:12;98749.44;;;7.22;73.00
80116;BME280;69423;47.608;19.366;2023-04-22T02:39:43;98755.56;;;7.22;72.47
80116;BME280;69423;47.608;19.366;2023-04-22T02:40:13;98755.41;;;7.24;72.51
80116;BME280;69423;47.608;19.366;2023-04-22T02:40:44;98755.41;;;7.24;72.53
80116;BME280;69423;47.608;19.366;2023-04-22T02:41:15;98753.41;;;7.26;72.72
80116;BME280;69423;47.608;19.366;2023-04-22T02:41:46;98742.97;;;7.24;72.34
80116;BME280;69423;47.608;19.366;2023-04-22T02:42:17;98750.75;;;7.26;71.83
80116;BME280;69423;47.608;19.366;2023-04-22T02:42:48;98756.06;;;7.26;72.41
80116;BME280;69423;47.608;19.366;2023-04-22T02:43:19;98748.25;;;7.24;71.79
80116;BME280;69423;47.608;19.366;2023-04-22T02:43:50;98756.88;;;7.26;71.52
80116;BME280;69423;47.608;19.366;2023-04-22T02:44:20;98756.88;;;7.26;71.51
80116;BME280;69423;47.608;19.366;2023-04-22T02:44:51;98752.09;;;7.22;70.84
80116;BME280;69423;47.608;19.366;2023-04-22T02:45:22;98753.09;;;7.21;70.74